Terminal Aerodrome Forecast
Issued by NWS

Home | Current Version | Previous Version | Text Only | Print | Product List | Glossary On
Versions: 1 2 3 4 5 6 7 8 9 10 11 12 13 14 15 16 17 18 19 20 21 22 23
000
FTUS43 KPAH 231033 AAC
TAFCGI
TAF AMD
KCGI 231033Z 2311/2406 21012KT P6SM -SHRA SCT005 OVC011
      TEMPO 2311/2313 5SM -SHRA
     FM231300 27007KT P6SM -SHRA OVC008
     FM231800 VRB04KT P6SM VCSH OVC015
     FM232200 04004KT P6SM -SHRA OVC010=

USA.gov is the U.S. government's official web portal to all federal, state and local government web resources and services.